Portada
METAR-TAF:

METAR-TAF

Aeroports :

Nagasaki, Japó

latitud: 32-55N, longitud: 129-55E, altitud: 2 m

Observació

L'informe es va fer fa 10 minuts, a les 09:00 UTC
Vent 11 kt del Nord
Temperatura 23°C
Humitat 83%
Pressió 1012 hPa
Visibilitat 10 km o més
Escasses núvols a una alçada de 2000 ft
Núvols disperses a una alçada de 3000 ft
Cel ennuvolat a una alçada de 5000 ft

METAR: RJFU 230900Z 36011KT 9999 FEW020 SCT030 BKN050 23/20 Q1012

Hora: 18:10 (09:10 UTC)

Pronòstic

L'informe es va fer fa 4 hores i 0 minuts, a les 05:10 UTC
Pronòstic vàlid del 23 a les 06 UTC al 24 a les 12 UTC
Vent 13 kt del Nord
Visibilitat 10 km o més
Escasses núvols a una alçada de 2000 ft
Núvols disperses a una alçada de 3000 ft
Cel ennuvolat a una alçada de 3500 ft

TAF: RJFU 230510Z 2306/2412 01013KT 9999 FEW020 SCT030 BKN035

Observacions i pronòstics meteorològics de més de 4000 aeroports (METAR i TAF).

Les estacions disponibles són els punts grocs i vermells al mapa.

Posi el ratolí al punt desitjat per veure el nom de l'estació.

Feu clic per veure les observacions i els pronòstics meteorològics.

Per canviar el mapa: feu clic els botons verds amb una creu de color negre per apropar; al botó verd amb un guió per allunyar la imatge; o en les fletxes verdes per a mapes adjacents.


METAR-TAF: